Terminal Aerodrome Forecast
Issued by NWS

Home | Current Version | Previous Version | Text Only | Print | Product List | Glossary On
Versions: 1 2 3 4 5 6 7 8 9 10 11 12 13
000
FTUS46 KSEW 261120
TAFPAE
TAF
KPAE 261120Z 2612/2712 18008KT P6SM BKN010 BKN200
      TEMPO 2612/2615 SCT010 BKN200
     FM261500 17010KT P6SM OVC008
     FM261900 21008KT P6SM SCT013 BKN200
     FM262100 27006KT P6SM SCT040 BKN200=

USA.gov is the U.S. government's official web portal to all federal, state and local government web resources and services.